Strona główna
METAR-TAF:

METAR-TAF

Lotnisko :

Port lotniczy Gibraltar

Gibraltar, Gibraltar

Szerokość geograficzna: 36-09N, Długość geograficzna: 005-21W, wysokość: 5 m

Aktualna obserwacja pogody

Raport powstał 20 minut temu, godzina 11:20 UTC
Wiatr 9 kt od południowo-południowy zachód
Temperatura 17°C
Wilgotność 72%
Ciśnienie 1027 hPa
Widzialność 10 km lub więcej
Mało chmury na wysokości 2000 ft

METAR: LXGB 101120Z 20009KT 9999 FEW020 17/12 Q1027 NOSIG RMK BLU BLU

czas: 12:40 (11:40 UTC)

Prognoza

Raport powstał 1 godzina i 16 minut temu, godzina 10:24 UTC
Prognoza ważna od 10 godzina 12 UTC do 10 godzina 21 UTC
Wiatr 7 kt od zachodnio-południowy zachód
Widzialność 10 km lub więcej
Mało chmury na wysokości 2500 ft

TAF: LXGB 101024Z 1012/1021 25007KT 9999 FEW025

Obserwacja i prognoza pogody dla ponad 4000 lotnisk (raport METAR i TAF).

Dostępne stacje oznaczono żółtymi i czerwonymi punktami na mapie.

Najedź kursorem aby zobaczyć nazwę stacji.

Kliknij aby zobaczyć obserwacje i prognozy pogody.

Aby zmienić mapę: kliknij na zielony przycisk z czarnym krzyżykiem, aby powiększyć; na zielony przycisk z myślnikiem, aby pomniejszyć; na zielone strzałki, aby przejść do map sąsiednich.


METAR-TAF: